Time;durP1;ratioP1;P1;durP2;ratioP2;P2;SDS_P1;SDS_P2;PMS_P1;PMS_P2;Temp;Humidity;BMP_temperature;BMP_pressure;BME280_temperature;BME280_humidity;BME280_pressure;Samples;Min_cycle;Max_cycle;Signal;HPM_P1;HPM_P2
2023/03/14 00:00:35;;;;;;;36.38;7.97;;;;;;;;;;5101704;28;20052;-73
2023/03/14 00:03:01;;;;;;;28.50;7.60;;;;;;;;;;5099597;28;20136;-73
2023/03/14 00:05:27;;;;;;;24.65;6.72;;;;;;;;;;5114503;28;20131;-74
2023/03/14 00:07:54;;;;;;;27.17;6.95;;;;;;;;;;5114992;27;20076;-74
2023/03/14 00:10:20;;;;;;;29.23;6.80;;;;;;;;;;5113036;27;20055;-73
2023/03/14 00:12:47;;;;;;;35.15;7.38;;;;;;;;;;5100953;27;20059;-73
2023/03/14 00:15:13;;;;;;;30.58;5.97;;;;;;;;;;5101602;28;20048;-73
2023/03/14 00:17:42;;;;;;;33.00;6.28;;;;;;;;;;5112910;28;20914;-74
2023/03/14 00:20:09;;;;;;;26.23;6.43;;;;;;;;;;5100265;28;20589;-73
2023/03/14 00:22:37;;;;;;;25.13;6.40;;;;;;;;;;5106421;27;20070;-73
2023/03/14 00:25:04;;;;;;;25.80;7.05;;;;;;;;;;5118436;28;20612;-73
2023/03/14 00:27:31;;;;;;;44.58;7.50;;;;;;;;;;5119210;27;21042;-73
2023/03/14 00:29:57;;;;;;;28.75;7.10;;;;;;;;;;5106900;27;20056;-73
2023/03/14 00:32:24;;;;;;;27.33;6.32;;;;;;;;;;5106597;28;20052;-74
2023/03/14 00:34:50;;;;;;;36.38;6.55;;;;;;;;;;5107192;27;20041;-74
2023/03/14 00:37:16;;;;;;;27.50;6.05;;;;;;;;;;5109562;28;20110;-73
2023/03/14 00:39:43;;;;;;;35.72;5.70;;;;;;;;;;5114355;28;20048;-73
2023/03/14 00:42:09;;;;;;;25.65;5.70;;;;;;;;;;5114660;28;20070;-73
2023/03/14 00:44:36;;;;;;;16.55;3.75;;;;;;;;;;5109333;28;20167;-73
2023/03/14 00:47:05;;;;;;;22.73;5.13;;;;;;;;;;5104209;28;20106;-74
2023/03/14 00:49:32;;;;;;;18.90;4.30;;;;;;;;;;5114595;27;20814;-74
2023/03/14 00:51:58;;;;;;;15.02;4.07;;;;;;;;;;5102563;28;20122;-74
2023/03/14 00:54:25;;;;;;;20.65;3.88;;;;;;;;;;5117478;28;20093;-74
2023/03/14 00:56:51;;;;;;;19.83;3.47;;;;;;;;;;5113398;28;20588;-74
2023/03/14 00:59:18;;;;;;;15.63;3.30;;;;;;;;;;5109765;28;20110;-73
2023/03/14 01:01:44;;;;;;;21.88;3.83;;;;;;;;;;5102904;28;20501;-74
2023/03/14 01:04:11;;;;;;;15.18;3.63;;;;;;;;;;5110082;27;20052;-75
2023/03/14 01:06:38;;;;;;;11.55;3.10;;;;;;;;;;5104194;28;20048;-74
2023/03/14 01:09:05;;;;;;;12.95;3.05;;;;;;;;;;5121859;27;20056;-73
2023/03/14 01:11:33;;;;;;;11.00;3.42;;;;;;;;;;5108799;27;20488;-73
2023/03/14 01:13:59;;;;;;;25.73;3.03;;;;;;;;;;5112063;27;20040;-73
2023/03/14 01:16:28;;;;;;;14.88;3.42;;;;;;;;;;5110319;28;20043;-74
2023/03/14 01:18:54;;;;;;;15.10;2.92;;;;;;;;;;5104800;28;20142;-73
2023/03/14 01:21:23;;;;;;;12.70;3.08;;;;;;;;;;5113165;28;20044;-73
2023/03/14 01:23:50;;;;;;;11.63;3.30;;;;;;;;;;5103955;28;20058;-73
2023/03/14 01:26:21;;;;;;;17.17;3.13;;;;;;;;;;5102422;28;20094;-73
2023/03/14 01:28:48;;;;;;;17.90;3.75;;;;;;;;;;5102500;28;20040;-73
2023/03/14 01:31:15;;;;;;;15.55;4.03;;;;;;;;;;5111430;28;20056;-73
2023/03/14 01:33:42;;;;;;;17.60;3.70;;;;;;;;;;5100711;28;20175;-73
2023/03/14 01:36:09;;;;;;;11.05;2.55;;;;;;;;;;5118079;27;20500;-73
2023/03/14 01:38:37;;;;;;;12.48;4.03;;;;;;;;;;5115078;28;20046;-74
2023/03/14 01:41:06;;;;;;;17.52;5.00;;;;;;;;;;5120323;28;20093;-73
2023/03/14 01:43:32;;;;;;;16.77;3.40;;;;;;;;;;5113388;28;20179;-74
2023/03/14 01:46:05;;;;;;;15.50;3.47;;;;;;;;;;5119019;28;20048;-73
2023/03/14 01:48:47;;;;;;;17.15;4.38;;;;;;;;;;5103094;27;20037;-73
2023/03/14 01:51:17;;;;;;;18.70;4.07;;;;;;;;;;5101168;28;20056;-73
2023/03/14 01:53:44;;;;;;;9.70;2.50;;;;;;;;;;5101556;28;20136;-73
2023/03/14 01:56:12;;;;;;;13.45;3.30;;;;;;;;;;5101150;28;20076;-73
2023/03/14 01:58:41;;;;;;;16.02;4.50;;;;;;;;;;5113171;27;20059;-73
2023/03/14 02:01:08;;;;;;;10.45;2.83;;;;;;;;;;5106597;27;20097;-73
2023/03/14 02:03:42;;;;;;;12.60;3.00;;;;;;;;;;5113690;28;20072;-73
2023/03/14 02:06:10;;;;;;;20.63;3.40;;;;;;;;;;5118492;28;20122;-73
2023/03/14 02:08:39;;;;;;;16.33;2.92;;;;;;;;;;5115318;27;20049;-73
2023/03/14 02:11:11;;;;;;;10.70;2.72;;;;;;;;;;5121336;27;20098;-73
2023/03/14 02:14:02;;;;;;;17.48;3.15;;;;;;;;;;5112113;28;20484;-73
2023/03/14 02:16:51;;;;;;;13.52;2.55;;;;;;;;;;5119570;27;20047;-73
2023/03/14 02:19:59;;;;;;;18.38;3.38;;;;;;;;;;5105588;28;20132;-74
2023/03/14 02:22:33;;;;;;;13.30;3.85;;;;;;;;;;5116073;28;20474;-74
2023/03/14 02:25:04;;;;;;;20.67;4.55;;;;;;;;;;5104485;28;20115;-74
2023/03/14 02:27:30;;;;;;;14.60;2.45;;;;;;;;;;5100890;28;20056;-72
2023/03/14 02:29:58;;;;;;;15.93;2.90;;;;;;;;;;5109028;28;20130;-75
2023/03/14 02:32:27;;;;;;;15.85;3.10;;;;;;;;;;5117274;28;20098;-75
2023/03/14 02:34:55;;;;;;;11.70;2.80;;;;;;;;;;5101402;28;20134;-75
2023/03/14 02:37:23;;;;;;;12.45;2.40;;;;;;;;;;5112278;28;20120;-74
2023/03/14 02:39:49;;;;;;;12.20;2.53;;;;;;;;;;5102298;28;20053;-74
2023/03/14 02:42:17;;;;;;;21.08;3.42;;;;;;;;;;5114040;28;20055;-75
2023/03/14 02:44:55;;;;;;;13.32;2.33;;;;;;;;;;5113722;28;20082;-75
2023/03/14 02:47:24;;;;;;;12.75;2.42;;;;;;;;;;5100313;28;20578;-75
2023/03/14 02:49:52;;;;;;;14.57;3.13;;;;;;;;;;5101064;28;20106;-75
2023/03/14 02:52:18;;;;;;;11.85;2.25;;;;;;;;;;5099622;28;20072;-75
2023/03/14 02:54:44;;;;;;;11.70;2.10;;;;;;;;;;5101990;28;20060;-75
2023/03/14 02:57:11;;;;;;;15.32;3.00;;;;;;;;;;5117441;28;20048;-74
2023/03/14 02:59:37;;;;;;;8.45;3.10;;;;;;;;;;5105460;28;20080;-75
2023/03/14 03:02:11;;;;;;;12.18;3.00;;;;;;;;;;5101218;28;20045;-75
2023/03/14 03:04:37;;;;;;;12.77;2.90;;;;;;;;;;5101036;28;20049;-74
2023/03/14 03:07:04;;;;;;;14.65;3.17;;;;;;;;;;5110549;27;20083;-74
2023/03/14 03:09:30;;;;;;;9.60;2.78;;;;;;;;;;5118778;27;20055;-74
2023/03/14 03:11:57;;;;;;;16.90;2.67;;;;;;;;;;5113630;28;20048;-75
2023/03/14 03:14:25;;;;;;;9.10;2.88;;;;;;;;;;5100222;28;20737;-75
2023/03/14 03:16:55;;;;;;;14.35;3.92;;;;;;;;;;5100835;28;20483;-74
2023/03/14 03:19:22;;;;;;;12.73;3.13;;;;;;;;;;5100608;28;20527;-74
2023/03/14 03:21:48;;;;;;;10.43;2.90;;;;;;;;;;5101277;28;20181;-74
2023/03/14 03:24:15;;;;;;;15.30;3.80;;;;;;;;;;5108289;28;20109;-74
2023/03/14 03:26:41;;;;;;;13.52;3.75;;;;;;;;;;5104902;28;20053;-75
2023/03/14 03:29:09;;;;;;;14.90;3.15;;;;;;;;;;5103303;28;20044;-74
2023/03/14 03:31:36;;;;;;;12.23;3.50;;;;;;;;;;5106803;28;20056;-74
2023/03/14 03:34:03;;;;;;;13.30;3.70;;;;;;;;;;5110410;28;20068;-74
2023/03/14 03:36:30;;;;;;;13.05;3.20;;;;;;;;;;5100876;28;20044;-74
2023/03/14 03:38:58;;;;;;;16.67;4.47;;;;;;;;;;5112187;28;20048;-74
2023/03/14 03:41:24;;;;;;;10.70;3.35;;;;;;;;;;5100763;28;20517;-74
2023/03/14 03:43:51;;;;;;;13.27;4.72;;;;;;;;;;5099138;28;20048;-74
2023/03/14 03:46:18;;;;;;;10.07;3.10;;;;;;;;;;5104115;28;20056;-74
2023/03/14 03:48:44;;;;;;;11.30;3.30;;;;;;;;;;5112250;28;20117;-74
2023/03/14 03:51:15;;;;;;;17.65;3.95;;;;;;;;;;5112382;28;20440;-74
2023/03/14 03:53:42;;;;;;;11.05;3.08;;;;;;;;;;5099606;28;20931;-74
2023/03/14 03:56:11;;;;;;;8.65;3.33;;;;;;;;;;5099874;28;20602;-74
2023/03/14 03:58:39;;;;;;;6.38;2.63;;;;;;;;;;5099433;28;20059;-74
2023/03/14 04:01:09;;;;;;;11.20;3.28;;;;;;;;;;5108260;28;20075;-74
2023/03/14 04:03:38;;;;;;;10.70;3.50;;;;;;;;;;5111554;28;20055;-74
2023/03/14 04:06:06;;;;;;;19.48;3.78;;;;;;;;;;5098810;28;20052;-74
2023/03/14 04:08:35;;;;;;;7.43;2.80;;;;;;;;;;5105963;27;20106;-74
2023/03/14 04:11:02;;;;;;;15.13;3.47;;;;;;;;;;5102339;28;20162;-74
2023/03/14 04:13:49;;;;;;;16.58;3.33;;;;;;;;;;5100297;28;20067;-74
2023/03/14 04:16:20;;;;;;;10.23;3.00;;;;;;;;;;5110722;28;20055;-74
2023/03/14 04:18:47;;;;;;;13.70;3.10;;;;;;;;;;5100654;28;20049;-74
2023/03/14 04:21:15;;;;;;;16.17;3.03;;;;;;;;;;5111867;28;20101;-74
2023/03/14 04:23:47;;;;;;;20.52;4.18;;;;;;;;;;5110798;28;20097;-74
2023/03/14 04:26:15;;;;;;;8.93;2.90;;;;;;;;;;5112280;28;20101;-74
2023/03/14 04:28:42;;;;;;;12.98;2.80;;;;;;;;;;5106467;28;20163;-73
2023/03/14 04:31:10;;;;;;;13.45;2.97;;;;;;;;;;5109692;28;20062;-74
2023/03/14 04:33:37;;;;;;;13.68;3.15;;;;;;;;;;5112126;28;20083;-74
2023/03/14 04:36:04;;;;;;;9.88;2.47;;;;;;;;;;5102368;28;20523;-74
2023/03/14 04:38:31;;;;;;;19.77;2.63;;;;;;;;;;5105370;27;20044;-74
2023/03/14 04:40:59;;;;;;;18.25;3.13;;;;;;;;;;5098473;28;20064;-74
2023/03/14 04:43:29;;;;;;;10.63;2.83;;;;;;;;;;5106438;28;20053;-74
2023/03/14 04:46:04;;;;;;;6.03;2.38;;;;;;;;;;5110902;28;20056;-74
2023/03/14 04:48:30;;;;;;;12.63;3.35;;;;;;;;;;5105037;28;20048;-74
2023/03/14 04:50:58;;;;;;;12.02;3.00;;;;;;;;;;5104827;28;20110;-74
2023/03/14 04:53:27;;;;;;;10.50;3.60;;;;;;;;;;5110501;28;20552;-74
2023/03/14 04:55:56;;;;;;;15.23;4.10;;;;;;;;;;5116224;28;20043;-74
2023/03/14 04:58:28;;;;;;;8.82;2.83;;;;;;;;;;5097736;28;20056;-74
2023/03/14 05:01:01;;;;;;;10.88;3.22;;;;;;;;;;5098256;28;20509;-74
2023/03/14 05:03:37;;;;;;;14.43;3.33;;;;;;;;;;5105867;28;20945;-74
2023/03/14 05:06:14;;;;;;;15.35;3.33;;;;;;;;;;5113684;28;20044;-74
2023/03/14 05:09:04;;;;;;;19.58;3.95;;;;;;;;;;5110867;28;20127;-73
2023/03/14 05:11:49;;;;;;;13.57;3.17;;;;;;;;;;5105724;28;20097;-73
2023/03/14 05:14:45;;;;;;;19.23;4.75;;;;;;;;;;5104953;28;20053;-72
2023/03/14 05:17:14;;;;;;;9.80;2.95;;;;;;;;;;5116846;28;20094;-74
2023/03/14 05:19:59;;;;;;;11.60;3.50;;;;;;;;;;5115836;28;20160;-73
2023/03/14 05:22:43;;;;;;;18.52;4.47;;;;;;;;;;5111654;27;20057;-73
2023/03/14 05:25:36;;;;;;;13.25;4.10;;;;;;;;;;5091301;28;20071;-73
2023/03/14 05:28:29;;;;;;;12.90;3.30;;;;;;;;;;5095926;27;20070;-74
2023/03/14 05:31:16;;;;;;;13.27;3.05;;;;;;;;;;5080636;28;20052;-73
2023/03/14 05:33:49;;;;;;;15.98;4.32;;;;;;;;;;5108095;28;20133;-74
2023/03/14 05:36:54;;;;;;;25.73;4.20;;;;;;;;;;5093269;28;20059;-74
2023/03/14 05:39:52;;;;;;;13.02;4.13;;;;;;;;;;5106870;27;20518;-73
2023/03/14 05:42:41;;;;;;;15.13;3.80;;;;;;;;;;5103933;28;20048;-73
2023/03/14 05:45:27;;;;;;;11.50;4.20;;;;;;;;;;5102562;28;20287;-76
2023/03/14 05:48:11;;;;;;;12.55;4.50;;;;;;;;;;5102817;28;20075;-75
2023/03/14 05:51:03;;;;;;;9.98;3.92;;;;;;;;;;5108609;28;20054;-75
2023/03/14 05:53:44;;;;;;;13.32;4.53;;;;;;;;;;5101895;28;20051;-75
2023/03/14 05:56:32;;;;;;;13.57;4.78;;;;;;;;;;5088390;28;20045;-75
2023/03/14 05:59:14;;;;;;;12.88;5.95;;;;;;;;;;5104044;28;20110;-76
2023/03/14 06:02:03;;;;;;;16.73;6.13;;;;;;;;;;5110709;27;20059;-74
2023/03/14 06:04:41;;;;;;;13.73;5.80;;;;;;;;;;5100884;28;20055;-75
2023/03/14 06:07:08;;;;;;;10.50;6.05;;;;;;;;;;5111918;27;20052;-75
2023/03/14 06:09:34;;;;;;;13.45;6.32;;;;;;;;;;5119908;28;20059;-75
2023/03/14 06:12:01;;;;;;;8.27;6.05;;;;;;;;;;5119285;28;20533;-74
2023/03/14 06:14:32;;;;;;;15.30;6.97;;;;;;;;;;5112830;28;20166;-75
2023/03/14 06:16:59;;;;;;;11.70;6.25;;;;;;;;;;5102141;28;20059;-74
2023/03/14 06:19:29;;;;;;;14.38;6.53;;;;;;;;;;5100841;28;20401;-74
2023/03/14 06:21:55;;;;;;;16.10;7.80;;;;;;;;;;5100998;28;20555;-75
2023/03/14 06:24:24;;;;;;;18.92;7.93;;;;;;;;;;5100676;28;20497;-75
2023/03/14 06:26:51;;;;;;;12.18;7.05;;;;;;;;;;5108870;28;20843;-75
2023/03/14 06:29:18;;;;;;;25.77;8.40;;;;;;;;;;5113464;27;20057;-74
2023/03/14 06:31:45;;;;;;;17.75;8.68;;;;;;;;;;5113963;28;20132;-74
2023/03/14 06:34:14;;;;;;;23.27;8.70;;;;;;;;;;5104508;27;20135;-75
2023/03/14 06:36:41;;;;;;;21.95;8.45;;;;;;;;;;5106050;28;20132;-74
2023/03/14 06:39:07;;;;;;;16.77;9.05;;;;;;;;;;5109026;28;20788;-76
2023/03/14 06:41:37;;;;;;;13.43;6.72;;;;;;;;;;5110547;27;20139;-73
2023/03/14 06:44:04;;;;;;;10.27;6.65;;;;;;;;;;5110573;28;20056;-76
2023/03/14 06:46:31;;;;;;;6.10;3.17;;;;;;;;;;5101023;28;20066;-73
2023/03/14 06:48:57;;;;;;;8.45;2.80;;;;;;;;;;5101003;28;20538;-73
2023/03/14 06:51:25;;;;;;;2.88;1.42;;;;;;;;;;5099962;28;20045;-73
2023/03/14 06:53:51;;;;;;;4.20;2.08;;;;;;;;;;5108372;28;20058;-74
2023/03/14 06:56:21;;;;;;;6.07;2.20;;;;;;;;;;5108184;27;21156;-73
2023/03/14 06:58:47;;;;;;;2.75;0.98;;;;;;;;;;5113455;28;20102;-74
2023/03/14 07:01:20;;;;;;;4.32;1.13;;;;;;;;;;5101148;28;20429;-73
2023/03/14 07:03:47;;;;;;;5.97;1.42;;;;;;;;;;5112037;28;20048;-73
2023/03/14 07:06:14;;;;;;;2.47;1.25;;;;;;;;;;5112568;27;20166;-73
2023/03/14 07:08:41;;;;;;;4.55;1.25;;;;;;;;;;5107633;28;20076;-73
2023/03/14 07:11:09;;;;;;;6.20;1.33;;;;;;;;;;5103474;27;20055;-73
2023/03/14 07:13:37;;;;;;;2.45;1.60;;;;;;;;;;5112935;28;20835;-73
2023/03/14 07:16:06;;;;;;;4.65;1.50;;;;;;;;;;5103097;27;20052;-73
2023/03/14 07:18:32;;;;;;;5.57;1.25;;;;;;;;;;5107575;27;20100;-73
2023/03/14 07:21:02;;;;;;;1.83;1.13;;;;;;;;;;5112386;28;20056;-73
2023/03/14 07:23:29;;;;;;;4.93;1.45;;;;;;;;;;5102344;27;20052;-75
2023/03/14 07:25:56;;;;;;;1.83;1.42;;;;;;;;;;5104445;28;20045;-75
2023/03/14 07:28:24;;;;;;;4.55;1.77;;;;;;;;;;5100846;28;20059;-76
2023/03/14 07:30:57;;;;;;;2.85;1.90;;;;;;;;;;5119429;28;20074;-76
2023/03/14 07:33:29;;;;;;;2.10;1.20;;;;;;;;;;5110718;27;20048;-74
2023/03/14 07:35:56;;;;;;;2.78;1.10;;;;;;;;;;5108778;28;20048;-74
2023/03/14 07:38:22;;;;;;;2.60;1.05;;;;;;;;;;5107716;27;20547;-75
2023/03/14 07:41:08;;;;;;;1.73;0.82;;;;;;;;;;5096913;28;20111;-74
2023/03/14 07:43:40;;;;;;;8.52;1.30;;;;;;;;;;5110592;27;20595;-73
2023/03/14 07:46:06;;;;;;;4.25;1.17;;;;;;;;;;5112836;28;20052;-76
2023/03/14 07:48:32;;;;;;;2.33;1.20;;;;;;;;;;5120788;28;20054;-75
2023/03/14 07:50:59;;;;;;;5.45;1.25;;;;;;;;;;5111970;28;20044;-76
2023/03/14 07:53:26;;;;;;;4.03;1.10;;;;;;;;;;5100043;28;20102;-75
2023/03/14 07:55:52;;;;;;;0.90;0.90;;;;;;;;;;5110816;28;20164;-75
2023/03/14 07:58:19;;;;;;;3.20;1.10;;;;;;;;;;5110494;27;20535;-75
2023/03/14 08:00:45;;;;;;;10.48;2.60;;;;;;;;;;5099460;28;20055;-75
2023/03/14 08:03:11;;;;;;;9.98;1.63;;;;;;;;;;5112552;28;20086;-74
2023/03/14 08:05:38;;;;;;;5.38;1.42;;;;;;;;;;5113174;28;20114;-75
2023/03/14 08:08:04;;;;;;;9.57;1.80;;;;;;;;;;5110087;28;20135;-74
2023/03/14 08:10:31;;;;;;;6.03;1.98;;;;;;;;;;5118011;27;20084;-75
2023/03/14 08:12:58;;;;;;;11.40;1.80;;;;;;;;;;5105579;28;20080;-75
2023/03/14 08:15:25;;;;;;;7.10;1.52;;;;;;;;;;5114731;27;20048;-75
2023/03/14 08:17:53;;;;;;;4.43;1.42;;;;;;;;;;5107340;27;20048;-74
2023/03/14 08:20:20;;;;;;;1.85;0.75;;;;;;;;;;5104636;27;20063;-75
2023/03/14 08:22:47;;;;;;;1.33;1.23;;;;;;;;;;5108650;28;20045;-76
2023/03/14 08:25:13;;;;;;;4.05;1.40;;;;;;;;;;5113819;28;20048;-76
2023/03/14 08:27:41;;;;;;;4.47;1.02;;;;;;;;;;5113547;28;20897;-75
2023/03/14 08:30:09;;;;;;;10.77;1.55;;;;;;;;;;5110902;27;20052;-74
2023/03/14 08:32:36;;;;;;;2.72;0.98;;;;;;;;;;5099772;27;20070;-76
2023/03/14 08:35:03;;;;;;;4.63;1.02;;;;;;;;;;5098126;28;20049;-75
2023/03/14 08:37:30;;;;;;;6.32;1.13;;;;;;;;;;5104946;28;20063;-76
2023/03/14 08:39:57;;;;;;;2.03;0.90;;;;;;;;;;5107928;27;20106;-76
2023/03/14 08:42:24;;;;;;;2.50;0.98;;;;;;;;;;5101166;28;20077;-75
2023/03/14 08:44:51;;;;;;;7.10;1.73;;;;;;;;;;5101006;28;20103;-74
2023/03/14 08:47:17;;;;;;;3.60;0.80;;;;;;;;;;5102995;28;20052;-74
2023/03/14 08:49:44;;;;;;;10.60;2.30;;;;;;;;;;5101451;28;20040;-73
2023/03/14 08:52:11;;;;;;;2.97;1.48;;;;;;;;;;5109375;27;20056;-73
2023/03/14 08:54:37;;;;;;;7.72;1.48;;;;;;;;;;5116683;27;20079;-74
2023/03/14 08:57:03;;;;;;;8.63;1.23;;;;;;;;;;5103961;27;20079;-76
2023/03/14 08:59:30;;;;;;;6.05;1.48;;;;;;;;;;5103069;28;20102;-73
2023/03/14 09:01:56;;;;;;;10.15;1.70;;;;;;;;;;5103671;28;20205;-73
2023/03/14 09:04:22;;;;;;;5.45;1.73;;;;;;;;;;5115578;28;20051;-76
2023/03/14 09:06:49;;;;;;;9.88;1.90;;;;;;;;;;5102784;28;20151;-73
2023/03/14 09:09:15;;;;;;;9.95;2.03;;;;;;;;;;5112544;28;20584;-76
2023/03/14 09:11:41;;;;;;;11.05;3.03;;;;;;;;;;5109103;28;20060;-76
2023/03/14 09:14:08;;;;;;;12.25;1.98;;;;;;;;;;5112712;28;21174;-75
2023/03/14 09:16:34;;;;;;;5.53;1.63;;;;;;;;;;5111637;28;20056;-75
2023/03/14 09:19:01;;;;;;;5.25;1.55;;;;;;;;;;5109544;28;21274;-76
2023/03/14 09:21:27;;;;;;;16.80;2.40;;;;;;;;;;5122922;28;20102;-75
2023/03/14 09:23:53;;;;;;;15.73;3.28;;;;;;;;;;5121276;28;20055;-75
2023/03/14 09:26:20;;;;;;;9.73;2.75;;;;;;;;;;5116129;28;20049;-76
2023/03/14 09:28:46;;;;;;;12.00;1.80;;;;;;;;;;5106484;28;20131;-76
2023/03/14 09:31:13;;;;;;;15.18;3.13;;;;;;;;;;5114095;27;20052;-76
2023/03/14 09:33:39;;;;;;;9.43;2.53;;;;;;;;;;5102306;28;20096;-75
2023/03/14 09:36:07;;;;;;;15.95;2.63;;;;;;;;;;5110658;28;20074;-76
2023/03/14 09:38:34;;;;;;;13.27;2.75;;;;;;;;;;5112467;27;20096;-76
2023/03/14 09:41:02;;;;;;;16.08;2.72;;;;;;;;;;5111907;28;20072;-75
2023/03/14 09:43:30;;;;;;;12.55;1.92;;;;;;;;;;5112745;27;20093;-74
2023/03/14 09:45:57;;;;;;;21.17;3.08;;;;;;;;;;5109503;27;20644;-75
2023/03/14 09:48:28;;;;;;;12.43;2.67;;;;;;;;;;5105611;28;20578;-75
2023/03/14 09:50:56;;;;;;;10.38;2.50;;;;;;;;;;5113334;27;20037;-74
2023/03/14 09:53:37;;;;;;;18.73;3.35;;;;;;;;;;5112324;28;20110;-75
2023/03/14 09:56:04;;;;;;;17.77;3.63;;;;;;;;;;5120284;27;20060;-75
2023/03/14 09:58:31;;;;;;;17.83;2.95;;;;;;;;;;5111392;27;20056;-75
2023/03/14 10:00:57;;;;;;;15.13;3.25;;;;;;;;;;5115385;28;20097;-75
2023/03/14 10:03:26;;;;;;;20.00;3.25;;;;;;;;;;5121844;27;20487;-75
2023/03/14 10:05:53;;;;;;;15.77;2.70;;;;;;;;;;5111707;27;20044;-75
2023/03/14 10:08:19;;;;;;;20.52;3.47;;;;;;;;;;5115137;27;20118;-75
2023/03/14 10:10:46;;;;;;;25.95;3.33;;;;;;;;;;5108935;28;20048;-75
2023/03/14 10:13:21;;;;;;;8.27;2.50;;;;;;;;;;5121730;28;20142;-75
2023/03/14 10:16:08;;;;;;;15.80;3.25;;;;;;;;;;5119821;27;20529;-75
2023/03/14 10:18:34;;;;;;;9.73;2.90;;;;;;;;;;5122091;27;20067;-75
2023/03/14 10:21:21;;;;;;;10.85;2.65;;;;;;;;;;5119371;28;20062;-76
2023/03/14 10:23:48;;;;;;;11.57;2.55;;;;;;;;;;5116259;28;20109;-75
2023/03/14 10:26:23;;;;;;;23.30;4.32;;;;;;;;;;5101810;28;20053;-75
2023/03/14 10:28:53;;;;;;;17.20;3.75;;;;;;;;;;5105185;27;20827;-74
2023/03/14 10:31:25;;;;;;;12.25;3.60;;;;;;;;;;5116523;28;20094;-74
2023/03/14 10:34:02;;;;;;;20.42;3.10;;;;;;;;;;5109039;28;20877;-74
2023/03/14 10:36:29;;;;;;;18.13;3.10;;;;;;;;;;5119897;27;20106;-75
2023/03/14 10:39:21;;;;;;;11.00;3.42;;;;;;;;;;5116189;27;20591;-74
2023/03/14 10:41:50;;;;;;;30.42;4.88;;;;;;;;;;5116407;27;20049;-75
2023/03/14 10:44:18;;;;;;;16.33;3.13;;;;;;;;;;5116447;27;20986;-75
2023/03/14 10:46:45;;;;;;;26.77;5.13;;;;;;;;;;5120673;27;20095;-75
2023/03/14 10:49:33;;;;;;;16.90;3.35;;;;;;;;;;5108834;28;20047;-75
2023/03/14 10:52:09;;;;;;;17.27;3.67;;;;;;;;;;5113518;27;20102;-74
2023/03/14 10:54:35;;;;;;;23.88;3.42;;;;;;;;;;5109096;28;20060;-75
2023/03/14 10:57:04;;;;;;;16.25;2.88;;;;;;;;;;5112096;28;20094;-74
2023/03/14 10:59:34;;;;;;;17.67;3.83;;;;;;;;;;5113315;28;20048;-75
2023/03/14 11:02:20;;;;;;;25.17;4.70;;;;;;;;;;5117182;28;20062;-74
2023/03/14 11:04:56;;;;;;;28.10;3.95;;;;;;;;;;5114195;28;20093;-75
2023/03/14 11:07:35;;;;;;;21.40;4.10;;;;;;;;;;5111751;27;20103;-74
2023/03/14 11:10:20;;;;;;;17.98;3.55;;;;;;;;;;5108445;27;20063;-74
2023/03/14 11:12:49;;;;;;;10.63;2.88;;;;;;;;;;5113731;28;20040;-75
2023/03/14 11:15:19;;;;;;;19.75;3.45;;;;;;;;;;5113447;27;20807;-75
2023/03/14 11:17:54;;;;;;;17.38;2.85;;;;;;;;;;5107365;28;20045;-74
2023/03/14 11:20:38;;;;;;;15.10;3.33;;;;;;;;;;5114683;27;20052;-74
2023/03/14 11:23:23;;;;;;;17.55;4.35;;;;;;;;;;5115069;28;20052;-75
2023/03/14 11:25:52;;;;;;;21.00;3.13;;;;;;;;;;5115934;28;20044;-75
2023/03/14 11:28:35;;;;;;;19.42;3.35;;;;;;;;;;5115319;28;20048;-74
2023/03/14 11:31:20;;;;;;;14.55;2.90;;;;;;;;;;5112508;27;20044;-73
2023/03/14 11:34:00;;;;;;;11.93;2.17;;;;;;;;;;5107551;27;20045;-75
2023/03/14 11:36:30;;;;;;;10.18;2.63;;;;;;;;;;5113849;28;20052;-74
2023/03/14 11:38:57;;;;;;;12.77;2.72;;;;;;;;;;5106913;28;20052;-74
2023/03/14 11:41:33;;;;;;;10.30;3.20;;;;;;;;;;5117211;27;20086;-74
2023/03/14 11:44:02;;;;;;;14.18;2.72;;;;;;;;;;5113905;28;20087;-75
2023/03/14 11:46:40;;;;;;;14.98;3.05;;;;;;;;;;5108708;27;20556;-74
2023/03/14 11:49:25;;;;;;;10.40;2.63;;;;;;;;;;5111728;27;20163;-74
2023/03/14 11:51:55;;;;;;;19.33;3.17;;;;;;;;;;5112937;28;20063;-75
2023/03/14 11:54:24;;;;;;;18.33;3.45;;;;;;;;;;5113045;27;20048;-73
2023/03/14 11:56:53;;;;;;;11.65;2.05;;;;;;;;;;5116178;28;20048;-73
2023/03/14 11:59:27;;;;;;;15.13;2.20;;;;;;;;;;5116497;28;20052;-73
2023/03/14 12:01:53;;;;;;;8.30;2.40;;;;;;;;;;5114254;27;20520;-74
2023/03/14 12:04:34;;;;;;;11.23;2.05;;;;;;;;;;5107462;28;20094;-73
2023/03/14 12:07:03;;;;;;;13.32;2.20;;;;;;;;;;5109840;27;20060;-74
2023/03/14 12:09:29;;;;;;;16.33;2.38;;;;;;;;;;5118842;28;20076;-73
2023/03/14 12:11:58;;;;;;;13.23;3.40;;;;;;;;;;5111023;27;20620;-74
2023/03/14 12:14:28;;;;;;;17.73;2.47;;;;;;;;;;5112670;28;20044;-73
2023/03/14 12:16:57;;;;;;;9.65;1.98;;;;;;;;;;5113051;27;20131;-74
2023/03/14 12:19:23;;;;;;;16.52;2.95;;;;;;;;;;5110618;27;20162;-74
2023/03/14 12:21:57;;;;;;;8.43;1.83;;;;;;;;;;5116595;28;20048;-74
2023/03/14 12:24:31;;;;;;;8.45;1.80;;;;;;;;;;5110330;27;20057;-74
2023/03/14 12:27:01;;;;;;;13.23;2.13;;;;;;;;;;5113347;27;20052;-74
2023/03/14 12:29:29;;;;;;;7.68;2.35;;;;;;;;;;5113257;27;20509;-74
2023/03/14 12:32:14;;;;;;;6.35;1.80;;;;;;;;;;5111000;27;20075;-73
2023/03/14 12:34:42;;;;;;;15.55;3.40;;;;;;;;;;5112937;27;20947;-74
2023/03/14 12:37:09;;;;;;;15.80;2.90;;;;;;;;;;5115048;27;20066;-73
2023/03/14 12:39:54;;;;;;;14.93;2.10;;;;;;;;;;5114767;28;20137;-73
2023/03/14 12:42:29;;;;;;;10.00;2.42;;;;;;;;;;5107689;28;20052;-73
2023/03/14 12:45:16;;;;;;;16.77;2.72;;;;;;;;;;5117910;28;20083;-73
2023/03/14 12:47:44;;;;;;;6.95;2.28;;;;;;;;;;5111801;28;20145;-75
2023/03/14 12:50:16;;;;;;;10.23;1.85;;;;;;;;;;5105150;27;20047;-73
2023/03/14 12:52:48;;;;;;;6.95;1.70;;;;;;;;;;5114917;28;20048;-73
2023/03/14 12:55:14;;;;;;;3.83;1.60;;;;;;;;;;5116997;28;20056;-73
2023/03/14 12:58:03;;;;;;;9.45;1.90;;;;;;;;;;5117685;28;20082;-73
2023/03/14 13:00:32;;;;;;;13.07;4.13;;;;;;;;;;5118266;28;20067;-73
2023/03/14 13:03:17;;;;;;;11.50;2.38;;;;;;;;;;5112698;28;20048;-73
2023/03/14 13:05:57;;;;;;;14.40;2.08;;;;;;;;;;5113528;28;20048;-73
2023/03/14 13:08:33;;;;;;;12.27;2.78;;;;;;;;;;5114969;28;20052;-73
2023/03/14 13:11:01;;;;;;;6.88;1.52;;;;;;;;;;5110576;28;20447;-73
2023/03/14 13:13:27;;;;;;;5.50;1.65;;;;;;;;;;5116359;27;20056;-72
2023/03/14 13:15:58;;;;;;;8.70;1.83;;;;;;;;;;5118554;28;20052;-73
2023/03/14 13:18:24;;;;;;;5.30;1.80;;;;;;;;;;5118500;27;20052;-72
2023/03/14 13:20:59;;;;;;;10.25;1.83;;;;;;;;;;5116764;28;20052;-77
2023/03/14 13:23:30;;;;;;;10.77;2.08;;;;;;;;;;5115987;27;20051;-76
2023/03/14 13:25:57;;;;;;;5.70;1.48;;;;;;;;;;5115544;28;20563;-73
2023/03/14 13:28:23;;;;;;;10.00;2.13;;;;;;;;;;5110983;27;20148;-74
2023/03/14 13:30:53;;;;;;;17.15;1.90;;;;;;;;;;5117377;27;20350;-73
2023/03/14 13:33:21;;;;;;;8.35;1.55;;;;;;;;;;5111980;28;20048;-73
2023/03/14 13:36:08;;;;;;;10.30;1.92;;;;;;;;;;5113048;28;20545;-75
2023/03/14 13:38:35;;;;;;;7.18;1.48;;;;;;;;;;5111140;28;20084;-75
2023/03/14 13:41:06;;;;;;;5.18;1.70;;;;;;;;;;5110371;28;20055;-75
2023/03/14 13:43:33;;;;;;;4.05;1.65;;;;;;;;;;5115006;28;20048;-75
2023/03/14 13:46:00;;;;;;;4.13;1.40;;;;;;;;;;5113973;27;20044;-75
2023/03/14 13:48:28;;;;;;;6.07;2.05;;;;;;;;;;5118879;27;20080;-74
2023/03/14 13:50:59;;;;;;;10.23;2.05;;;;;;;;;;5116299;27;20129;-74
2023/03/14 13:53:26;;;;;;;4.72;1.85;;;;;;;;;;5120034;27;20059;-74
2023/03/14 13:55:52;;;;;;;9.25;1.70;;;;;;;;;;5120544;27;20258;-75
2023/03/14 13:58:21;;;;;;;13.57;1.80;;;;;;;;;;5113422;27;20056;-75
2023/03/14 14:00:59;;;;;;;7.40;1.50;;;;;;;;;;5120211;27;20055;-75
2023/03/14 14:03:26;;;;;;;12.15;2.50;;;;;;;;;;5110348;28;20055;-75
2023/03/14 14:05:54;;;;;;;12.35;3.35;;;;;;;;;;5119517;27;20086;-75
2023/03/14 14:08:21;;;;;;;10.63;2.10;;;;;;;;;;5121213;27;20078;-74
2023/03/14 14:10:48;;;;;;;15.57;2.65;;;;;;;;;;5117855;28;20048;-74
2023/03/14 14:13:15;;;;;;;11.38;2.47;;;;;;;;;;5119268;27;20114;-74
2023/03/14 14:15:44;;;;;;;5.10;1.55;;;;;;;;;;5119603;27;20088;-74
2023/03/14 14:18:12;;;;;;;6.30;1.23;;;;;;;;;;5121280;27;20040;-75
2023/03/14 14:20:43;;;;;;;12.55;2.17;;;;;;;;;;5118972;27;20143;-76
2023/03/14 14:23:15;;;;;;;4.38;1.33;;;;;;;;;;5120835;27;20048;-75
2023/03/14 14:25:42;;;;;;;4.00;1.88;;;;;;;;;;5119859;27;20051;-74
2023/03/14 14:28:24;;;;;;;8.60;2.40;;;;;;;;;;5117206;27;20063;-75
2023/03/14 14:30:59;;;;;;;7.07;1.70;;;;;;;;;;5119113;28;20047;-74
2023/03/14 14:33:26;;;;;;;10.60;2.00;;;;;;;;;;5110293;28;20144;-75
2023/03/14 14:36:01;;;;;;;1.70;1.13;;;;;;;;;;5120183;28;20052;-75
2023/03/14 14:38:28;;;;;;;11.57;1.70;;;;;;;;;;5113738;27;20083;-75
2023/03/14 14:40:59;;;;;;;12.35;2.60;;;;;;;;;;5119462;27;20048;-75
2023/03/14 14:43:27;;;;;;;7.65;1.58;;;;;;;;;;5111223;28;20135;-74
2023/03/14 14:45:54;;;;;;;9.43;1.95;;;;;;;;;;5109631;28;20079;-74
2023/03/14 14:48:22;;;;;;;6.95;1.50;;;;;;;;;;5117009;28;20139;-74
2023/03/14 14:50:59;;;;;;;6.88;2.05;;;;;;;;;;5120518;27;20063;-75
2023/03/14 14:53:28;;;;;;;7.75;1.63;;;;;;;;;;5108586;28;20049;-75